Time;durP1;ratioP1;P1;durP2;ratioP2;P2;SDS_P1;SDS_P2;PMS_P1;PMS_P2;Temp;Humidity;BMP_temperature;BMP_pressure;BME280_temperature;BME280_humidity;BME280_pressure;Samples;Min_cycle;Max_cycle;Signal;HPM_P1;HPM_P2
2021/07/11 00:00:50;;;;;;;21.60;16.27;;;;;;;16.13;100.00;100891.84;3564420;40;20079;-49
2021/07/11 00:03:17;;;;;;;20.20;17.88;;;;;;;16.08;100.00;100888.38;3564332;40;20085;-52
2021/07/11 00:05:44;;;;;;;23.42;19.42;;;;;;;16.09;100.00;100885.84;3564227;40;20073;-48
2021/07/11 00:08:11;;;;;;;27.13;21.52;;;;;;;16.12;100.00;100882.38;3563956;40;20324;-50
2021/07/11 00:10:38;;;;;;;25.30;20.63;;;;;;;16.06;100.00;100883.22;3564137;40;20417;-47
2021/07/11 00:13:05;;;;;;;24.23;19.73;;;;;;;16.01;100.00;100875.44;3564439;40;20061;-55
2021/07/11 00:15:32;;;;;;;25.70;19.63;;;;;;;15.95;100.00;100877.13;3564222;40;20057;-51
2021/07/11 00:18:02;;;;;;;20.60;17.55;;;;;;;16.04;100.00;100877.19;3564168;40;20135;-53
2021/07/11 00:20:29;;;;;;;19.45;16.17;;;;;;;15.99;100.00;100873.69;3564188;40;20184;-51
2021/07/11 00:22:56;;;;;;;18.13;15.90;;;;;;;16.00;100.00;100875.44;3564117;40;20116;-52
2021/07/11 00:25:23;;;;;;;19.13;15.40;;;;;;;15.95;100.00;100870.25;3564346;40;20059;-47
2021/07/11 00:27:50;;;;;;;19.00;14.35;;;;;;;15.91;100.00;100875.38;3564106;40;20112;-49
2021/07/11 00:30:19;;;;;;;22.63;15.82;;;;;;;15.87;100.00;100868.47;3563972;40;20089;-53
2021/07/11 00:32:46;;;;;;;26.45;18.00;;;;;;;15.83;100.00;100871.88;3564121;40;20159;-47
2021/07/11 00:35:14;;;;;;;24.40;17.38;;;;;;;15.82;100.00;100875.31;3563979;40;20131;-47
2021/07/11 00:37:42;;;;;;;22.60;17.15;;;;;;;15.90;100.00;100871.03;3563727;40;20057;-49
2021/07/11 00:40:10;;;;;;;18.52;15.88;;;;;;;15.88;100.00;100872.75;3563936;40;20057;-48
2021/07/11 00:42:38;;;;;;;16.25;14.07;;;;;;;15.83;100.00;100875.31;3563953;40;20847;-48
2021/07/11 00:45:06;;;;;;;16.98;13.90;;;;;;;15.73;100.00;100868.34;3563859;40;20083;-47
2021/07/11 00:47:35;;;;;;;16.02;13.82;;;;;;;15.70;100.00;100873.50;3563951;40;20085;-53
2021/07/11 00:50:06;;;;;;;16.85;14.82;;;;;;;15.70;100.00;100863.16;3563802;40;20629;-51
2021/07/11 00:52:33;;;;;;;16.90;14.60;;;;;;;15.68;100.00;100868.31;3563682;40;20065;-52
2021/07/11 00:55:00;;;;;;;18.95;15.07;;;;;;;15.68;100.00;100868.31;3564007;40;20073;-48
2021/07/11 00:57:27;;;;;;;19.00;14.68;;;;;;;15.68;100.00;100868.31;3563442;40;20064;-50
2021/07/11 00:59:54;;;;;;;23.63;17.35;;;;;;;15.67;100.00;100860.59;3563926;40;20114;-48
2021/07/11 01:02:24;;;;;;;25.08;18.98;;;;;;;15.70;100.00;100869.19;3564146;40;20425;-51
2021/07/11 01:05:15;;;;;;;28.88;23.27;;;;;;;15.63;100.00;100876.88;3564030;40;20078;-53
2021/07/11 01:07:58;;;;;;;40.75;29.75;;;;;;;15.56;100.00;100872.50;3563756;40;20077;-48
2021/07/11 01:10:58;;;;;;;36.05;30.10;;;;;;;15.51;100.00;100869.88;3563547;40;20070;-49
2021/07/11 01:13:26;;;;;;;38.92;31.30;;;;;;;15.56;100.00;100863.03;3563468;40;20089;-50
2021/07/11 01:15:56;;;;;;;40.28;34.42;;;;;;;15.51;100.00;100865.56;3563957;40;20069;-53
2021/07/11 01:18:24;;;;;;;43.53;35.22;;;;;;;15.45;100.00;100867.25;3563781;40;20396;-50
2021/07/11 01:20:57;;;;;;;40.58;30.85;;;;;;;15.44;100.00;100865.53;3563633;40;20101;-54
2021/07/11 01:23:47;;;;;;;39.95;31.50;;;;;;;15.38;100.00;100866.31;3563906;40;20084;-50
2021/07/11 01:26:15;;;;;;;36.13;28.55;;;;;;;15.43;100.00;100859.47;3563615;40;20583;-51
2021/07/11 01:28:43;;;;;;;31.08;25.33;;;;;;;15.40;100.00;100862.03;3563617;40;20061;-48
2021/07/11 01:31:11;;;;;;;33.97;26.02;;;;;;;15.34;100.00;100863.69;3563365;40;20041;-53
2021/07/11 01:33:41;;;;;;;25.58;22.52;;;;;;;15.33;100.00;100859.38;3563746;40;20419;-49
2021/07/11 01:36:10;;;;;;;25.10;20.20;;;;;;;15.28;100.00;100862.78;3563572;40;20179;-49
2021/07/11 01:38:41;;;;;;;22.52;17.58;;;;;;;15.27;100.00;100863.66;3563499;40;20304;-51
2021/07/11 01:41:10;;;;;;;17.98;16.10;;;;;;;15.24;100.00;100865.31;3563534;40;20181;-50
2021/07/11 01:43:38;;;;;;;18.67;14.35;;;;;;;15.23;100.00;100871.34;3563466;40;20053;-52
2021/07/11 01:46:08;;;;;;;18.13;15.07;;;;;;;15.21;100.00;100866.19;3563593;40;20049;-50
2021/07/11 01:48:37;;;;;;;21.70;15.63;;;;;;;15.14;100.00;100868.66;3563358;40;20089;-51
2021/07/11 01:51:05;;;;;;;18.92;16.30;;;;;;;15.14;100.00;100866.94;3563571;40;20093;-47
2021/07/11 01:53:35;;;;;;;18.88;16.55;;;;;;;15.09;100.00;100872.94;3564628;40;20101;-48
2021/07/11 01:56:04;;;;;;;15.57;13.57;;;;;;;15.16;100.00;100882.44;3565240;40;20081;-47
2021/07/11 01:58:32;;;;;;;18.88;16.00;;;;;;;15.13;100.00;100882.44;3564963;40;20462;-54
2021/07/11 02:01:01;;;;;;;19.48;16.00;;;;;;;15.08;100.00;100876.34;3564927;40;20069;-48
2021/07/11 02:03:28;;;;;;;18.40;15.60;;;;;;;15.10;100.00;100880.66;3565061;40;20082;-48
2021/07/11 02:05:55;;;;;;;17.73;15.88;;;;;;;15.11;100.00;100877.22;3564988;40;20448;-50
2021/07/11 02:08:22;;;;;;;17.67;15.23;;;;;;;15.24;100.00;100876.50;3564895;40;20157;-50
2021/07/11 02:10:52;;;;;;;18.52;16.55;;;;;;;15.12;100.00;100875.53;3564980;40;20065;-52
2021/07/11 02:13:46;;;;;;;24.70;16.58;;;;;;;14.97;100.00;100877.09;3565061;40;20113;-51
2021/07/11 02:16:25;;;;;;;19.88;17.08;;;;;;;14.88;100.00;100877.03;3564917;40;20050;-51
2021/07/11 02:18:56;;;;;;;25.27;17.38;;;;;;;14.89;100.00;100878.75;3565176;40;20053;-49
2021/07/11 02:21:24;;;;;;;18.52;15.98;;;;;;;14.91;100.00;100876.16;3565140;40;20443;-47
2021/07/11 02:23:52;;;;;;;20.27;16.08;;;;;;;14.89;100.00;100873.59;3564861;40;20081;-47
2021/07/11 02:26:20;;;;;;;21.67;16.95;;;;;;;14.91;100.00;100879.59;3564833;40;20117;-48
2021/07/11 02:28:52;;;;;;;21.50;17.25;;;;;;;14.91;100.00;100874.44;3564738;40;20064;-52
2021/07/11 02:31:21;;;;;;;19.95;16.10;;;;;;;14.89;100.00;100873.59;3564773;40;20071;-50
2021/07/11 02:33:49;;;;;;;20.52;17.02;;;;;;;14.78;100.00;100872.59;3564901;40;20067;-49
2021/07/11 02:36:29;;;;;;;19.33;15.10;;;;;;;14.80;100.00;100870.03;3564945;40;20116;-48
2021/07/11 02:39:11;;;;;;;19.42;16.38;;;;;;;14.83;100.00;100870.06;3564777;40;20081;-53
2021/07/11 02:41:42;;;;;;;19.08;17.08;;;;;;;15.04;100.00;100878.03;3564771;40;20265;-51
2021/07/11 02:44:11;;;;;;;21.20;16.48;;;;;;;14.80;100.00;100878.63;3564793;40;20045;-52
2021/07/11 02:46:43;;;;;;;21.73;18.30;;;;;;;14.72;100.00;100872.53;3564779;40;20085;-51
2021/07/11 02:49:14;;;;;;;23.38;19.58;;;;;;;14.75;100.00;100875.16;3564400;40;20069;-52
2021/07/11 02:51:46;;;;;;;22.40;19.45;;;;;;;14.71;100.00;100878.53;3564852;40;20440;-49
2021/07/11 02:54:17;;;;;;;23.58;19.38;;;;;;;14.70;100.00;100875.09;3564938;40;20404;-50
2021/07/11 02:56:48;;;;;;;23.38;19.42;;;;;;;14.68;100.00;100876.75;3564955;40;20109;-48
2021/07/11 02:59:16;;;;;;;26.00;20.58;;;;;;;14.67;100.00;100882.78;3564702;40;20056;-52
2021/07/11 03:01:44;;;;;;;24.70;21.10;;;;;;;14.68;100.00;100873.31;3564576;40;20327;-50
2021/07/11 03:04:13;;;;;;;22.27;19.83;;;;;;;14.66;100.00;100875.91;3563877;40;20079;-53
2021/07/11 03:06:40;;;;;;;24.58;20.00;;;;;;;14.63;100.00;100881.00;3564644;40;20076;-49
2021/07/11 03:09:07;;;;;;;21.67;19.17;;;;;;;14.71;100.00;100875.94;3564266;40;20095;-50
2021/07/11 03:11:40;;;;;;;23.10;19.75;;;;;;;14.66;100.00;100877.63;3564709;40;20077;-50
2021/07/11 03:14:09;;;;;;;20.80;18.52;;;;;;;14.62;100.00;100874.13;3564734;40;20097;-48
2021/07/11 03:16:40;;;;;;;24.83;19.92;;;;;;;14.60;100.00;100870.66;3564462;40;20440;-48
2021/07/11 03:19:08;;;;;;;25.35;19.45;;;;;;;14.56;100.00;100868.91;3564512;40;20069;-48
2021/07/11 03:21:35;;;;;;;22.88;19.45;;;;;;;14.57;100.00;100865.47;3564429;40;20058;-48
2021/07/11 03:24:04;;;;;;;20.98;18.67;;;;;;;14.58;100.00;100877.50;3564562;40;20053;-50
2021/07/11 03:26:34;;;;;;;19.92;17.45;;;;;;;14.60;100.00;100874.94;3564364;40;20089;-48
2021/07/11 03:29:07;;;;;;;22.55;18.48;;;;;;;14.63;100.00;100877.56;3564216;40;20093;-52
2021/07/11 03:31:34;;;;;;;22.33;17.98;;;;;;;14.66;100.00;100875.91;3564542;40;20093;-48
2021/07/11 03:34:03;;;;;;;20.00;17.73;;;;;;;14.66;100.00;100873.31;3564237;40;20045;-48
2021/07/11 03:36:32;;;;;;;21.85;18.48;;;;;;;14.70;100.00;100876.81;3564191;40;20089;-51
2021/07/11 03:39:04;;;;;;;20.08;17.67;;;;;;;14.71;100.00;100886.25;3564423;40;20151;-48
2021/07/11 03:41:36;;;;;;;20.13;17.60;;;;;;;14.70;100.00;100879.38;3564779;40;20345;-50
2021/07/11 03:44:05;;;;;;;22.23;18.10;;;;;;;14.74;100.00;100882.03;3564070;40;20456;-50
2021/07/11 03:46:34;;;;;;;19.23;17.20;;;;;;;14.73;100.00;100882.84;3564193;40;20049;-50
2021/07/11 03:49:07;;;;;;;19.67;17.65;;;;;;;14.75;100.00;100886.31;3564145;40;20089;-52
2021/07/11 03:51:38;;;;;;;18.77;16.77;;;;;;;14.77;100.00;100889.75;3564407;40;20065;-52
2021/07/11 03:54:08;;;;;;;22.67;18.77;;;;;;;14.84;100.00;100887.28;3564398;40;20061;-48
2021/07/11 03:56:36;;;;;;;21.25;19.05;;;;;;;14.86;100.00;100885.56;3564409;40;20257;-51
2021/07/11 03:59:06;;;;;;;19.08;15.95;;;;;;;14.89;100.00;100881.31;3564305;40;20081;-50
2021/07/11 04:01:35;;;;;;;17.60;15.73;;;;;;;15.11;100.00;100882.38;3564300;40;20056;-49
2021/07/11 04:04:06;;;;;;;24.42;16.65;;;;;;;15.13;100.00;100883.28;3564316;40;20061;-49
2021/07/11 04:06:35;;;;;;;18.58;15.77;;;;;;;15.09;100.00;100885.81;3564553;40;20467;-49
2021/07/11 04:09:04;;;;;;;16.77;14.73;;;;;;;15.19;100.00;100890.22;3563841;40;20105;-50
2021/07/11 04:11:35;;;;;;;18.38;15.35;;;;;;;15.20;100.00;100890.22;3564178;40;20417;-51
2021/07/11 04:14:03;;;;;;;18.02;15.90;;;;;;;15.18;100.00;100891.06;3564097;40;20432;-47
2021/07/11 04:16:32;;;;;;;17.48;15.27;;;;;;;15.28;100.00;100888.59;3563840;40;20127;-48
2021/07/11 04:19:02;;;;;;;17.23;15.30;;;;;;;15.31;100.00;100889.47;3564151;40;20076;-50
2021/07/11 04:21:31;;;;;;;18.45;15.13;;;;;;;15.30;100.00;100891.19;3563899;40;20100;-48
2021/07/11 04:23:58;;;;;;;17.55;15.75;;;;;;;15.31;100.00;100897.22;3564100;40;20049;-53
2021/07/11 04:26:31;;;;;;;17.65;15.80;;;;;;;15.41;100.00;100891.28;3564546;40;20082;-48
2021/07/11 04:28:59;;;;;;;18.80;15.93;;;;;;;15.48;100.00;100896.53;3563859;40;20082;-53
2021/07/11 04:31:26;;;;;;;18.33;16.10;;;;;;;15.61;100.00;100900.06;3573829;40;20071;-48
2021/07/11 04:33:54;;;;;;;15.85;13.63;;;;;;;15.84;100.00;100910.59;3574425;40;20067;-48
2021/07/11 04:36:21;;;;;;;16.85;15.02;;;;;;;15.96;100.00;100904.69;3574028;40;20092;-49
2021/07/11 04:38:48;;;;;;;17.48;15.52;;;;;;;15.96;100.00;100904.69;3574027;40;20041;-52
2021/07/11 04:41:15;;;;;;;17.52;14.85;;;;;;;16.13;100.00;100908.25;3573933;40;20100;-49
2021/07/11 04:43:44;;;;;;;16.23;14.52;;;;;;;16.42;100.00;100911.00;3573927;40;20116;-52
2021/07/11 04:46:11;;;;;;;18.27;14.68;;;;;;;16.36;100.00;100915.25;3574097;40;20084;-50
2021/07/11 04:48:38;;;;;;;15.85;13.57;;;;;;;16.43;100.00;100911.84;3574258;40;20418;-51
2021/07/11 04:51:05;;;;;;;15.23;13.65;;;;;;;16.49;100.00;100917.91;3573603;40;20100;-53
2021/07/11 04:53:33;;;;;;;16.42;14.70;;;;;;;16.44;100.00;100916.16;3574169;40;20049;-48
2021/07/11 04:56:00;;;;;;;16.23;13.85;;;;;;;16.75;100.00;100924.97;3574225;40;20346;-52
2021/07/11 04:58:27;;;;;;;15.32;13.68;;;;;;;17.10;100.00;100914.75;3573751;40;20150;-51
2021/07/11 05:00:54;;;;;;;15.55;13.90;;;;;;;17.02;100.00;100913.84;3574160;40;20089;-55
2021/07/11 05:03:21;;;;;;;14.82;12.80;;;;;;;17.14;100.00;100916.47;3574030;40;20077;-53
2021/07/11 05:05:48;;;;;;;14.82;13.30;;;;;;;17.26;100.00;100923.41;3573810;40;20137;-53
2021/07/11 05:08:15;;;;;;;13.80;12.38;;;;;;;17.47;99.35;100915.69;3573741;40;20924;-48
2021/07/11 05:10:42;;;;;;;14.10;12.68;;;;;;;17.55;98.92;100919.13;3573744;40;20053;-49
2021/07/11 05:13:09;;;;;;;13.80;11.75;;;;;;;17.95;95.85;100916.56;3573698;40;20057;-49
2021/07/11 05:15:36;;;;;;;16.88;12.98;;;;;;;17.75;99.83;100915.72;3573526;40;20056;-50
2021/07/11 05:18:03;;;;;;;13.50;12.25;;;;;;;17.91;95.63;100924.34;3573674;40;20081;-49
2021/07/11 05:20:30;;;;;;;13.30;11.90;;;;;;;17.91;96.54;100916.56;3573663;40;20093;-49
2021/07/11 05:22:57;;;;;;;12.43;11.13;;;;;;;17.90;96.26;100925.22;3573716;40;20060;-50
2021/07/11 05:25:24;;;;;;;13.65;12.20;;;;;;;18.22;94.98;100928.63;3573995;40;20053;-52
2021/07/11 05:27:51;;;;;;;17.85;11.63;;;;;;;18.16;96.75;100928.59;3573186;40;20064;-49
2021/07/11 05:30:19;;;;;;;12.07;10.88;;;;;;;18.16;95.40;100930.34;3573488;40;20096;-49
2021/07/11 05:32:46;;;;;;;14.75;11.65;;;;;;;18.14;96.49;100929.50;3573484;40;20192;-55
2021/07/11 05:35:13;;;;;;;16.65;12.88;;;;;;;18.20;99.47;100926.88;3573577;40;20055;-52
2021/07/11 05:37:40;;;;;;;17.23;10.88;;;;;;;18.20;97.04;100932.94;3573454;40;20092;-51
2021/07/11 05:40:08;;;;;;;15.25;11.70;;;;;;;18.36;96.64;100936.38;3573565;40;20097;-48
2021/07/11 05:42:35;;;;;;;11.73;10.55;;;;;;;18.59;92.66;100936.31;3573555;40;20056;-52
2021/07/11 05:45:03;;;;;;;11.15;10.15;;;;;;;18.53;91.91;100936.31;3574011;40;20402;-53
2021/07/11 05:47:30;;;;;;;11.05;9.95;;;;;;;18.50;93.74;100938.94;3573636;40;20053;-48
2021/07/11 05:49:57;;;;;;;11.32;10.13;;;;;;;18.51;93.63;100938.91;3573511;40;20088;-49
2021/07/11 05:52:24;;;;;;;12.52;10.45;;;;;;;18.69;95.62;100937.16;3573849;40;20065;-49
2021/07/11 05:54:51;;;;;;;10.77;9.68;;;;;;;19.21;91.65;100935.16;3573637;40;20085;-47
2021/07/11 05:57:19;;;;;;;12.10;10.98;;;;;;;18.92;94.56;100937.06;3573462;40;20061;-46
2021/07/11 05:59:46;;;;;;;11.45;10.02;;;;;;;19.08;90.62;100934.38;3573258;40;20041;-47
2021/07/11 06:02:13;;;;;;;11.55;10.25;;;;;;;19.20;89.80;100938.66;3573597;40;20065;-48
2021/07/11 06:04:40;;;;;;;11.98;10.50;;;;;;;19.05;91.73;100937.00;3573560;40;20356;-48
2021/07/11 06:07:07;;;;;;;10.88;9.93;;;;;;;19.17;92.70;100937.78;3573291;40;20104;-48
2021/07/11 06:09:34;;;;;;;10.60;9.60;;;;;;;19.31;90.59;100939.44;3573240;40;20046;-46
2021/07/11 06:12:02;;;;;;;10.57;9.57;;;;;;;19.26;91.24;100933.41;3573364;40;20101;-49
2021/07/11 06:14:29;;;;;;;10.68;9.68;;;;;;;19.52;92.02;100929.78;3573262;40;20045;-51
2021/07/11 06:16:56;;;;;;;9.50;8.60;;;;;;;19.48;90.96;100928.94;3573608;40;20057;-48
2021/07/11 06:19:23;;;;;;;10.27;9.25;;;;;;;19.54;91.94;100928.03;3573209;40;20052;-49
2021/07/11 06:21:50;;;;;;;11.05;9.80;;;;;;;19.45;90.58;100918.56;3573154;40;20093;-46
2021/07/11 06:24:17;;;;;;;11.30;10.20;;;;;;;19.59;92.67;100915.88;3573104;40;20128;-51
2021/07/11 06:26:45;;;;;;;9.75;8.75;;;;;;;19.92;88.10;100919.97;3573062;40;20098;-48
2021/07/11 06:29:12;;;;;;;10.02;8.88;;;;;;;19.89;89.50;100914.78;3572836;40;20552;-49
2021/07/11 06:31:39;;;;;;;10.52;9.52;;;;;;;20.25;89.20;100920.50;3573222;40;20100;-49
2021/07/11 06:34:06;;;;;;;9.75;8.75;;;;;;;19.84;89.93;100922.63;3573134;40;20065;-51
2021/07/11 06:36:33;;;;;;;11.10;9.25;;;;;;;19.79;90.15;100920.94;3572993;40;20101;-46
2021/07/11 06:39:04;;;;;;;8.73;7.90;;;;;;;19.79;88.92;100914.00;3573820;40;20088;-48
2021/07/11 06:41:32;;;;;;;10.52;8.88;;;;;;;20.00;90.18;100917.28;3574392;40;20053;-47
2021/07/11 06:43:59;;;;;;;9.85;8.60;;;;;;;19.93;89.05;100913.88;3574595;40;20134;-46
2021/07/11 06:46:26;;;;;;;11.23;10.23;;;;;;;20.09;91.35;100915.44;3574978;40;20061;-52
2021/07/11 06:48:54;;;;;;;9.65;8.65;;;;;;;20.28;87.72;100918.72;3574685;40;20064;-48
2021/07/11 06:51:21;;;;;;;9.52;8.27;;;;;;;20.40;87.69;100916.88;3574293;40;20466;-48
2021/07/11 06:53:48;;;;;;;9.45;8.50;;;;;;;20.69;85.48;100909.63;3574831;40;20077;-46
2021/07/11 06:56:15;;;;;;;9.30;8.38;;;;;;;20.99;85.82;100918.78;3574667;40;20063;-48
2021/07/11 06:58:42;;;;;;;8.98;8.18;;;;;;;21.27;84.51;100915.78;3574567;40;20052;-46
2021/07/11 07:01:09;;;;;;;8.23;7.47;;;;;;;21.47;86.65;100918.13;3574572;40;20053;-51
2021/07/11 07:03:36;;;;;;;9.02;8.13;;;;;;;21.79;86.72;100915.84;3574479;40;20093;-46
2021/07/11 07:06:07;;;;;;;7.95;7.25;;;;;;;22.02;82.33;100922.41;3574654;40;20088;-51
2021/07/11 07:08:34;;;;;;;9.27;7.82;;;;;;;22.25;82.03;100920.25;3574311;40;20105;-46
2021/07/11 07:11:02;;;;;;;7.88;7.28;;;;;;;22.49;81.79;100913.72;3574324;40;20082;-53
2021/07/11 07:13:29;;;;;;;6.72;6.00;;;;;;;22.76;74.43;100919.25;3574635;40;20057;-46
2021/07/11 07:15:56;;;;;;;6.78;6.03;;;;;;;23.07;72.76;100922.97;3575065;40;20057;-47
2021/07/11 07:18:23;;;;;;;7.03;6.40;;;;;;;23.32;73.39;100920.63;3574592;40;20066;-49
2021/07/11 07:20:50;;;;;;;7.72;6.55;;;;;;;23.54;71.65;100926.22;3574532;40;20101;-49
2021/07/11 07:23:17;;;;;;;6.68;5.85;;;;;;;23.73;72.96;100925.81;3574564;40;20104;-50
2021/07/11 07:25:44;;;;;;;9.20;6.15;;;;;;;24.07;71.70;100928.41;3574484;40;20450;-51
2021/07/11 07:28:11;;;;;;;8.35;6.07;;;;;;;24.16;70.44;100930.78;3574283;40;20097;-52
2021/07/11 07:30:39;;;;;;;6.15;5.65;;;;;;;24.61;70.15;100926.06;3574472;40;20467;-48
2021/07/11 07:33:06;;;;;;;5.82;5.32;;;;;;;24.94;69.38;100925.97;3574336;40;20057;-54
2021/07/11 07:35:33;;;;;;;6.15;4.93;;;;;;;25.13;65.53;100929.78;3574415;40;20065;-46
2021/07/11 07:38:01;;;;;;;7.20;4.28;;;;;;;25.19;62.18;100930.50;3574231;40;20064;-52
2021/07/11 07:40:28;;;;;;;6.47;4.18;;;;;;;25.58;63.23;100931.00;3574330;40;20055;-50
2021/07/11 07:42:55;;;;;;;4.22;3.50;;;;;;;25.67;59.17;100932.47;3574348;40;20052;-51
2021/07/11 07:45:22;;;;;;;3.72;3.38;;;;;;;25.55;60.05;100928.47;3574121;40;20335;-50
2021/07/11 07:47:50;;;;;;;5.47;3.38;;;;;;;25.61;60.04;100926.53;3570442;40;20081;-55
2021/07/11 07:50:18;;;;;;;3.88;3.45;;;;;;;25.59;59.82;100930.94;3563795;40;20309;-46
2021/07/11 07:52:45;;;;;;;4.00;3.10;;;;;;;25.53;57.61;100925.91;3564319;40;20326;-52
2021/07/11 07:55:13;;;;;;;4.00;3.30;;;;;;;25.64;56.94;100921.16;3564182;40;20128;-50
2021/07/11 07:57:40;;;;;;;7.65;3.42;;;;;;;25.60;58.50;100916.91;3564196;40;20094;-46
2021/07/11 08:00:11;;;;;;;5.60;3.50;;;;;;;25.43;58.95;100907.91;3564076;40;20054;-46
2021/07/11 08:02:40;;;;;;;3.65;3.08;;;;;;;25.45;56.31;100920.03;3563966;40;20069;-46
2021/07/11 08:05:07;;;;;;;4.53;2.75;;;;;;;25.48;57.32;100916.47;3564117;40;20368;-49
2021/07/11 08:07:35;;;;;;;3.65;2.80;;;;;;;25.93;55.70;100911.50;3564183;40;20085;-48
2021/07/11 08:10:03;;;;;;;3.45;3.20;;;;;;;25.91;58.82;100910.69;3563848;40;20053;-47
2021/07/11 08:12:31;;;;;;;3.50;2.45;;;;;;;26.00;56.02;100910.34;3564250;40;20419;-47
2021/07/11 08:14:58;;;;;;;4.60;3.30;;;;;;;26.09;55.15;100909.19;3564381;40;20061;-52
2021/07/11 08:17:25;;;;;;;3.05;2.72;;;;;;;25.89;54.86;100912.50;3563878;40;20077;-49
2021/07/11 08:19:52;;;;;;;2.95;2.75;;;;;;;26.41;51.50;100918.53;3563897;40;20053;-53
2021/07/11 08:22:19;;;;;;;3.20;2.67;;;;;;;26.38;53.03;100919.47;3563899;40;20088;-50
2021/07/11 08:24:46;;;;;;;3.13;2.88;;;;;;;27.11;49.15;100926.44;3563859;40;20090;-52
2021/07/11 08:27:13;;;;;;;3.70;2.90;;;;;;;27.18;47.65;100919.16;3563964;40;20426;-50
2021/07/11 08:29:40;;;;;;;3.72;2.80;;;;;;;26.66;48.24;100926.38;3564050;40;20097;-49
2021/07/11 08:32:07;;;;;;;3.47;2.92;;;;;;;26.50;51.35;100922.63;3563916;40;20105;-47
2021/07/11 08:34:34;;;;;;;3.10;2.90;;;;;;;26.55;48.46;100926.78;3564055;40;20347;-47
2021/07/11 08:37:03;;;;;;;3.22;2.70;;;;;;;26.60;50.36;100918.75;3563880;40;20370;-49
2021/07/11 08:39:30;;;;;;;4.65;3.10;;;;;;;26.35;48.22;100922.25;3563695;40;20117;-54
2021/07/11 08:41:58;;;;;;;2.90;2.70;;;;;;;26.38;47.49;100922.13;3564255;40;20085;-48
2021/07/11 08:44:26;;;;;;;3.35;2.90;;;;;;;26.25;49.85;100928.72;3563962;40;20045;-50
2021/07/11 08:46:54;;;;;;;3.22;2.92;;;;;;;26.21;48.88;100927.13;3563725;40;20049;-49
2021/07/11 08:49:23;;;;;;;3.55;2.80;;;;;;;26.39;51.54;100929.09;3563869;40;20442;-46
2021/07/11 08:52:03;;;;;;;4.03;3.13;;;;;;;26.33;48.79;100931.06;3563899;40;20088;-46
2021/07/11 08:54:31;;;;;;;3.47;3.17;;;;;;;26.13;48.27;100929.16;3563872;40;20081;-51
2021/07/11 08:57:09;;;;;;;3.65;3.28;;;;;;;26.19;48.42;100928.94;3563995;40;20135;-49
2021/07/11 08:59:40;;;;;;;3.08;2.67;;;;;;;26.42;49.13;100938.63;3563707;40;20101;-50
2021/07/11 09:02:08;;;;;;;2.95;2.65;;;;;;;26.65;46.68;100936.03;3563352;40;20061;-51
2021/07/11 09:04:46;;;;;;;3.17;2.85;;;;;;;26.54;46.63;100934.75;3564007;40;20327;-48
2021/07/11 09:07:19;;;;;;;4.43;3.10;;;;;;;26.35;46.27;100935.38;3563980;40;20352;-46
2021/07/11 09:09:56;;;;;;;4.15;3.22;;;;;;;26.55;46.51;100934.66;3563796;40;20068;-52
2021/07/11 09:12:26;;;;;;;2.92;2.72;;;;;;;26.50;46.94;100928.72;3563877;40;20061;-51
2021/07/11 09:14:59;;;;;;;3.13;2.83;;;;;;;26.54;47.85;100919.84;3564154;40;20056;-46
2021/07/11 09:17:31;;;;;;;3.50;2.95;;;;;;;26.83;45.97;100929.25;3563596;40;20042;-48
2021/07/11 09:19:58;;;;;;;2.65;2.53;;;;;;;27.10;45.99;100935.25;3563738;40;20113;-49
2021/07/11 09:22:25;;;;;;;5.18;2.55;;;;;;;27.20;45.58;100934.88;3564029;40;20494;-49
2021/07/11 09:24:55;;;;;;;3.45;2.92;;;;;;;26.95;45.58;100940.19;3563532;40;20060;-48
2021/07/11 09:27:30;;;;;;;3.17;2.90;;;;;;;27.30;44.73;100936.22;3563606;40;20058;-46
2021/07/11 09:29:59;;;;;;;3.83;3.03;;;;;;;27.37;44.15;100927.19;3563660;40;20356;-52
2021/07/11 09:32:38;;;;;;;3.10;2.80;;;;;;;27.32;44.98;100932.63;3563718;40;20042;-49
2021/07/11 09:35:17;;;;;;;4.43;2.85;;;;;;;27.39;41.14;100930.59;3563702;40;20053;-53
2021/07/11 09:37:47;;;;;;;2.95;2.70;;;;;;;28.10;43.03;100928.50;3563565;40;20114;-52
2021/07/11 09:40:16;;;;;;;3.00;2.80;;;;;;;28.21;42.14;100936.81;3563505;40;20064;-49
2021/07/11 09:42:45;;;;;;;3.10;2.80;;;;;;;28.76;41.71;100942.28;3563314;40;20093;-52
2021/07/11 09:45:19;;;;;;;3.08;2.53;;;;;;;28.90;40.01;100934.56;3563661;40;20065;-50
2021/07/11 09:47:50;;;;;;;3.78;2.90;;;;;;;28.87;39.89;100926.81;3563316;40;20101;-50
2021/07/11 09:50:23;;;;;;;8.45;3.00;;;;;;;28.56;41.14;100943.16;3563552;40;20091;-46
2021/07/11 09:52:56;;;;;;;3.08;2.30;;;;;;;28.66;42.08;100948.91;3563543;40;20136;-48
2021/07/11 09:55:34;;;;;;;4.22;2.90;;;;;;;28.84;39.90;100945.41;3563301;40;20098;-50
2021/07/11 09:58:08;;;;;;;4.32;2.58;;;;;;;28.40;38.97;100942.16;3563348;40;20093;-46
2021/07/11 10:00:38;;;;;;;2.72;2.47;;;;;;;28.90;38.96;100949.53;3563315;40;20146;-50
2021/07/11 10:03:15;;;;;;;2.45;2.25;;;;;;;28.51;40.68;100945.16;3563626;40;20108;-50
2021/07/11 10:05:44;;;;;;;6.00;2.55;;;;;;;29.71;37.24;100936.91;3563158;40;20053;-50
2021/07/11 10:08:11;;;;;;;3.47;2.90;;;;;;;30.07;37.83;100939.44;3563150;40;20081;-46
2021/07/11 10:10:40;;;;;;;2.55;2.22;;;;;;;30.79;33.46;100948.91;3563142;40;20057;-46
2021/07/11 10:13:08;;;;;;;3.78;2.40;;;;;;;30.63;32.29;100946.19;3564387;40;20097;-52
2021/07/11 10:15:38;;;;;;;2.60;2.40;;;;;;;30.15;37.09;100935.50;3567756;40;20323;-51
2021/07/11 10:18:13;;;;;;;3.30;2.50;;;;;;;30.28;34.69;100932.25;3564655;40;20058;-52
2021/07/11 10:20:48;;;;;;;6.75;2.78;;;;;;;32.93;32.82;100955.69;3563613;40;20510;-46
2021/07/11 10:23:28;;;;;;;2.95;2.45;;;;;;;35.06;28.11;100954.53;3564832;40;20065;-50
2021/07/11 10:26:01;;;;;;;3.40;2.42;;;;;;;34.27;29.84;100946.84;3564903;40;20053;-45
2021/07/11 10:28:36;;;;;;;2.97;2.67;;;;;;;35.82;27.41;100955.09;3564940;40;20081;-50
2021/07/11 10:31:04;;;;;;;2.67;2.35;;;;;;;34.66;27.38;100944.06;3564654;40;20088;-45
2021/07/11 10:33:43;;;;;;;3.72;2.85;;;;;;;36.47;25.38;100954.53;3565068;40;20077;-47
2021/07/11 10:36:12;;;;;;;4.00;2.78;;;;;;;37.55;25.03;100952.03;3564576;40;20101;-48
2021/07/11 10:38:43;;;;;;;3.03;2.65;;;;;;;36.63;26.24;100955.00;3564771;40;20073;-44
2021/07/11 10:41:21;;;;;;;3.03;2.83;;;;;;;36.05;26.82;100948.03;3564647;40;20051;-48
2021/07/11 10:44:10;;;;;;;3.25;2.63;;;;;;;37.96;23.43;100949.38;3564910;40;20069;-47
2021/07/11 10:46:45;;;;;;;3.15;2.90;;;;;;;37.08;25.04;100932.75;3565317;40;20057;-50
2021/07/11 10:49:20;;;;;;;2.88;2.67;;;;;;;35.90;26.39;100939.38;3565425;40;20069;-52
2021/07/11 10:51:51;;;;;;;3.38;2.85;;;;;;;36.87;25.31;100946.84;3565485;40;20558;-44
2021/07/11 10:54:30;;;;;;;3.28;2.60;;;;;;;37.33;23.54;100940.41;3565366;40;20065;-44
2021/07/11 10:57:06;;;;;;;3.13;2.92;;;;;;;37.88;22.54;100943.84;3564927;40;20827;-47
2021/07/11 10:59:41;;;;;;;4.10;2.60;;;;;;;36.51;25.75;100939.13;3564515;40;20045;-48
2021/07/11 11:02:20;;;;;;;3.03;2.80;;;;;;;37.45;24.39;100942.09;3564678;40;20091;-45
2021/07/11 11:05:01;;;;;;;3.78;2.78;;;;;;;38.26;25.22;100938.81;3564656;40;20100;-45
2021/07/11 11:07:49;;;;;;;3.03;2.75;;;;;;;38.42;25.04;100929.34;3564762;40;20057;-45
2021/07/11 11:10:29;;;;;;;5.05;2.88;;;;;;;36.80;25.40;100936.81;3564661;40;20086;-45
2021/07/11 11:13:19;;;;;;;4.18;3.53;;;;;;;34.49;27.38;100924.97;3564993;40;20057;-45
2021/07/11 11:15:55;;;;;;;3.65;3.35;;;;;;;32.16;30.38;100921.59;3564614;40;20050;-47
2021/07/11 11:18:29;;;;;;;3.15;2.80;;;;;;;33.21;30.30;100922.06;3564622;40;20058;-44
2021/07/11 11:21:09;;;;;;;3.08;2.78;;;;;;;33.42;30.16;100927.78;3564713;40;20053;-44
2021/07/11 11:23:37;;;;;;;3.00;2.78;;;;;;;32.20;30.51;100918.66;3564783;40;20093;-49